sensor_id;sensor_type;location;lat;lon;timestamp;P1;durP1;ratioP1;P2;durP2;ratioP2
17714;SDS011;8977;50.902;4.314;2024-02-23T00:00:23;2.90;;;1.10;;
17714;SDS011;8977;50.902;4.314;2024-02-23T00:02:50;2.90;;;0.80;;
17714;SDS011;8977;50.902;4.314;2024-02-23T00:05:19;2.80;;;0.93;;
17714;SDS011;8977;50.902;4.314;2024-02-23T00:07:45;3.70;;;0.97;;
17714;SDS011;8977;50.902;4.314;2024-02-23T00:10:14;2.07;;;0.80;;
17714;SDS011;8977;50.902;4.314;2024-02-23T00:12:42;3.63;;;1.00;;
17714;SDS011;8977;50.902;4.314;2024-02-23T00:15:09;2.70;;;0.80;;
17714;SDS011;8977;50.902;4.314;2024-02-23T00:17:36;3.10;;;0.80;;
17714;SDS011;8977;50.902;4.314;2024-02-23T00:20:04;6.50;;;0.80;;
17714;SDS011;8977;50.902;4.314;2024-02-23T00:22:32;3.03;;;0.77;;
17714;SDS011;8977;50.902;4.314;2024-02-23T00:24:59;3.23;;;0.70;;
17714;SDS011;8977;50.902;4.314;2024-02-23T00:27:27;2.67;;;0.90;;
17714;SDS011;8977;50.902;4.314;2024-02-23T00:29:54;3.63;;;0.93;;
17714;SDS011;8977;50.902;4.314;2024-02-23T00:32:21;5.03;;;0.90;;
17714;SDS011;8977;50.902;4.314;2024-02-23T00:34:48;2.70;;;1.00;;
17714;SDS011;8977;50.902;4.314;2024-02-23T00:37:15;1.40;;;0.80;;
17714;SDS011;8977;50.902;4.314;2024-02-23T00:39:42;3.07;;;0.60;;
17714;SDS011;8977;50.902;4.314;2024-02-23T00:42:08;2.90;;;0.80;;
17714;SDS011;8977;50.902;4.314;2024-02-23T00:44:37;2.10;;;0.70;;
17714;SDS011;8977;50.902;4.314;2024-02-23T00:47:04;2.87;;;0.47;;
17714;SDS011;8977;50.902;4.314;2024-02-23T00:49:31;1.67;;;0.53;;
17714;SDS011;8977;50.902;4.314;2024-02-23T00:51:58;2.37;;;0.90;;
17714;SDS011;8977;50.902;4.314;2024-02-23T00:54:24;2.30;;;0.80;;
17714;SDS011;8977;50.902;4.314;2024-02-23T00:56:51;3.27;;;0.90;;
17714;SDS011;8977;50.902;4.314;2024-02-23T00:59:18;3.23;;;1.03;;
17714;SDS011;8977;50.902;4.314;2024-02-23T01:01:47;2.67;;;0.83;;
17714;SDS011;8977;50.902;4.314;2024-02-23T01:04:14;3.67;;;0.80;;
17714;SDS011;8977;50.902;4.314;2024-02-23T01:06:41;1.13;;;0.50;;
17714;SDS011;8977;50.902;4.314;2024-02-23T01:09:07;3.20;;;1.13;;
17714;SDS011;8977;50.902;4.314;2024-02-23T01:11:34;3.73;;;0.90;;
17714;SDS011;8977;50.902;4.314;2024-02-23T01:14:01;3.00;;;0.90;;
17714;SDS011;8977;50.902;4.314;2024-02-23T01:16:28;3.13;;;0.90;;
17714;SDS011;8977;50.902;4.314;2024-02-23T01:18:56;4.23;;;0.90;;
17714;SDS011;8977;50.902;4.314;2024-02-23T01:21:23;3.50;;;0.73;;
17714;SDS011;8977;50.902;4.314;2024-02-23T01:23:50;1.27;;;0.80;;
17714;SDS011;8977;50.902;4.314;2024-02-23T01:26:17;2.63;;;0.73;;
17714;SDS011;8977;50.902;4.314;2024-02-23T01:28:44;1.57;;;0.80;;
17714;SDS011;8977;50.902;4.314;2024-02-23T01:31:10;3.27;;;0.90;;
17714;SDS011;8977;50.902;4.314;2024-02-23T01:33:38;4.77;;;1.10;;
17714;SDS011;8977;50.902;4.314;2024-02-23T01:36:07;1.43;;;0.67;;
17714;SDS011;8977;50.902;4.314;2024-02-23T01:38:35;2.67;;;0.97;;
17714;SDS011;8977;50.902;4.314;2024-02-23T01:41:01;1.97;;;0.60;;
17714;SDS011;8977;50.902;4.314;2024-02-23T01:43:29;2.47;;;0.63;;
17714;SDS011;8977;50.902;4.314;2024-02-23T01:45:55;2.40;;;1.00;;
17714;SDS011;8977;50.902;4.314;2024-02-23T01:48:22;2.40;;;0.87;;
17714;SDS011;8977;50.902;4.314;2024-02-23T01:50:49;1.00;;;0.60;;
17714;SDS011;8977;50.902;4.314;2024-02-23T01:53:18;3.00;;;1.00;;
17714;SDS011;8977;50.902;4.314;2024-02-23T01:55:46;3.20;;;0.90;;
17714;SDS011;8977;50.902;4.314;2024-02-23T01:58:14;5.47;;;1.10;;
17714;SDS011;8977;50.902;4.314;2024-02-23T02:00:41;3.00;;;0.93;;
17714;SDS011;8977;50.902;4.314;2024-02-23T02:03:08;1.97;;;1.00;;
17714;SDS011;8977;50.902;4.314;2024-02-23T02:05:35;3.30;;;1.00;;
17714;SDS011;8977;50.902;4.314;2024-02-23T02:08:03;1.63;;;0.80;;
17714;SDS011;8977;50.902;4.314;2024-02-23T02:10:32;4.53;;;0.90;;
17714;SDS011;8977;50.902;4.314;2024-02-23T02:13:02;5.03;;;1.10;;
17714;SDS011;8977;50.902;4.314;2024-02-23T02:15:30;3.57;;;1.40;;
17714;SDS011;8977;50.902;4.314;2024-02-23T02:17:57;2.93;;;1.37;;
17714;SDS011;8977;50.902;4.314;2024-02-23T02:20:24;4.00;;;1.50;;
17714;SDS011;8977;50.902;4.314;2024-02-23T02:22:51;6.30;;;1.23;;
17714;SDS011;8977;50.902;4.314;2024-02-23T02:25:18;5.80;;;1.37;;
17714;SDS011;8977;50.902;4.314;2024-02-23T02:27:47;3.43;;;1.93;;
17714;SDS011;8977;50.902;4.314;2024-02-23T02:30:14;4.23;;;1.20;;
17714;SDS011;8977;50.902;4.314;2024-02-23T02:32:41;5.33;;;1.57;;
17714;SDS011;8977;50.902;4.314;2024-02-23T02:35:09;4.30;;;1.20;;
17714;SDS011;8977;50.902;4.314;2024-02-23T02:37:37;4.03;;;1.17;;
17714;SDS011;8977;50.902;4.314;2024-02-23T02:40:04;6.83;;;1.13;;
17714;SDS011;8977;50.902;4.314;2024-02-23T02:42:32;3.47;;;1.27;;
17714;SDS011;8977;50.902;4.314;2024-02-23T02:45:01;3.47;;;1.30;;
17714;SDS011;8977;50.902;4.314;2024-02-23T02:47:28;6.83;;;1.40;;
17714;SDS011;8977;50.902;4.314;2024-02-23T02:49:55;4.37;;;1.03;;
17714;SDS011;8977;50.902;4.314;2024-02-23T02:52:22;9.67;;;1.50;;
17714;SDS011;8977;50.902;4.314;2024-02-23T02:54:49;2.83;;;0.93;;
17714;SDS011;8977;50.902;4.314;2024-02-23T02:57:16;4.10;;;1.33;;
17714;SDS011;8977;50.902;4.314;2024-02-23T02:59:43;3.80;;;1.10;;
17714;SDS011;8977;50.902;4.314;2024-02-23T03:02:12;4.67;;;1.13;;
17714;SDS011;8977;50.902;4.314;2024-02-23T03:04:39;2.83;;;1.43;;
17714;SDS011;8977;50.902;4.314;2024-02-23T03:07:12;7.60;;;1.47;;
17714;SDS011;8977;50.902;4.314;2024-02-23T03:09:39;5.20;;;1.00;;
17714;SDS011;8977;50.902;4.314;2024-02-23T03:12:06;8.03;;;1.47;;
17714;SDS011;8977;50.902;4.314;2024-02-23T03:14:33;3.20;;;1.23;;
17714;SDS011;8977;50.902;4.314;2024-02-23T03:17:00;7.40;;;1.53;;
17714;SDS011;8977;50.902;4.314;2024-02-23T03:19:30;4.20;;;1.20;;
17714;SDS011;8977;50.902;4.314;2024-02-23T03:21:57;4.17;;;1.33;;
17714;SDS011;8977;50.902;4.314;2024-02-23T03:24:24;3.80;;;1.20;;
17714;SDS011;8977;50.902;4.314;2024-02-23T03:26:51;4.87;;;0.93;;
17714;SDS011;8977;50.902;4.314;2024-02-23T03:29:18;2.73;;;1.00;;
17714;SDS011;8977;50.902;4.314;2024-02-23T03:31:45;4.77;;;1.40;;
17714;SDS011;8977;50.902;4.314;2024-02-23T03:34:12;4.50;;;1.10;;
17714;SDS011;8977;50.902;4.314;2024-02-23T03:36:40;5.47;;;1.30;;
17714;SDS011;8977;50.902;4.314;2024-02-23T03:39:07;3.03;;;1.10;;
17714;SDS011;8977;50.902;4.314;2024-02-23T03:41:34;5.60;;;1.23;;
17714;SDS011;8977;50.902;4.314;2024-02-23T03:44:00;3.30;;;1.30;;
17714;SDS011;8977;50.902;4.314;2024-02-23T03:46:27;2.40;;;1.00;;
17714;SDS011;8977;50.902;4.314;2024-02-23T03:48:54;5.57;;;1.37;;
17714;SDS011;8977;50.902;4.314;2024-02-23T03:51:21;6.03;;;1.53;;
17714;SDS011;8977;50.902;4.314;2024-02-23T03:53:49;4.70;;;1.60;;
17714;SDS011;8977;50.902;4.314;2024-02-23T03:56:16;5.90;;;1.40;;
17714;SDS011;8977;50.902;4.314;2024-02-23T03:58:43;5.70;;;1.30;;
17714;SDS011;8977;50.902;4.314;2024-02-23T04:01:10;4.90;;;1.50;;
17714;SDS011;8977;50.902;4.314;2024-02-23T04:03:36;3.57;;;1.30;;
17714;SDS011;8977;50.902;4.314;2024-02-23T04:06:03;6.10;;;1.40;;
17714;SDS011;8977;50.902;4.314;2024-02-23T04:08:30;4.73;;;1.20;;
17714;SDS011;8977;50.902;4.314;2024-02-23T04:10:59;5.43;;;1.27;;
17714;SDS011;8977;50.902;4.314;2024-02-23T04:13:25;5.30;;;1.60;;
17714;SDS011;8977;50.902;4.314;2024-02-23T04:15:52;4.97;;;1.00;;
17714;SDS011;8977;50.902;4.314;2024-02-23T04:18:19;4.33;;;1.57;;
17714;SDS011;8977;50.902;4.314;2024-02-23T04:20:46;5.53;;;1.20;;
17714;SDS011;8977;50.902;4.314;2024-02-23T04:23:13;5.63;;;1.50;;
17714;SDS011;8977;50.902;4.314;2024-02-23T04:25:40;6.63;;;1.90;;
17714;SDS011;8977;50.902;4.314;2024-02-23T04:28:08;5.73;;;1.47;;
17714;SDS011;8977;50.902;4.314;2024-02-23T04:30:35;4.83;;;1.30;;
17714;SDS011;8977;50.902;4.314;2024-02-23T04:33:02;6.30;;;1.37;;
17714;SDS011;8977;50.902;4.314;2024-02-23T04:35:28;7.57;;;1.30;;
17714;SDS011;8977;50.902;4.314;2024-02-23T04:37:55;4.23;;;1.37;;
17714;SDS011;8977;50.902;4.314;2024-02-23T04:40:22;7.75;;;1.83;;
17714;SDS011;8977;50.902;4.314;2024-02-23T04:42:49;2.77;;;1.10;;
17714;SDS011;8977;50.902;4.314;2024-02-23T04:45:17;2.97;;;1.07;;
17714;SDS011;8977;50.902;4.314;2024-02-23T04:47:44;7.30;;;1.30;;
17714;SDS011;8977;50.902;4.314;2024-02-23T04:50:11;6.20;;;1.30;;
17714;SDS011;8977;50.902;4.314;2024-02-23T04:52:38;3.87;;;1.30;;
17714;SDS011;8977;50.902;4.314;2024-02-23T04:55:05;6.00;;;1.80;;
17714;SDS011;8977;50.902;4.314;2024-02-23T04:57:32;8.17;;;1.43;;
17714;SDS011;8977;50.902;4.314;2024-02-23T04:59:59;2.40;;;1.00;;
17714;SDS011;8977;50.902;4.314;2024-02-23T05:02:28;6.00;;;1.47;;
17714;SDS011;8977;50.902;4.314;2024-02-23T05:05:00;4.13;;;1.30;;
17714;SDS011;8977;50.902;4.314;2024-02-23T05:07:29;5.50;;;1.70;;
17714;SDS011;8977;50.902;4.314;2024-02-23T05:09:56;5.70;;;1.50;;
17714;SDS011;8977;50.902;4.314;2024-02-23T05:12:23;4.63;;;1.50;;
17714;SDS011;8977;50.902;4.314;2024-02-23T05:14:50;4.93;;;1.50;;
17714;SDS011;8977;50.902;4.314;2024-02-23T05:17:16;6.67;;;1.47;;
17714;SDS011;8977;50.902;4.314;2024-02-23T05:19:45;5.80;;;1.57;;
17714;SDS011;8977;50.902;4.314;2024-02-23T05:22:12;5.13;;;1.30;;
17714;SDS011;8977;50.902;4.314;2024-02-23T05:24:39;4.50;;;1.70;;
17714;SDS011;8977;50.902;4.314;2024-02-23T05:27:06;5.40;;;1.47;;
17714;SDS011;8977;50.902;4.314;2024-02-23T05:29:33;5.93;;;1.57;;
17714;SDS011;8977;50.902;4.314;2024-02-23T05:31:59;5.37;;;2.03;;
17714;SDS011;8977;50.902;4.314;2024-02-23T05:34:26;4.43;;;1.80;;
17714;SDS011;8977;50.902;4.314;2024-02-23T05:36:54;5.00;;;1.80;;
17714;SDS011;8977;50.902;4.314;2024-02-23T05:39:21;4.83;;;1.83;;
17714;SDS011;8977;50.902;4.314;2024-02-23T05:41:48;8.77;;;1.80;;
17714;SDS011;8977;50.902;4.314;2024-02-23T05:44:15;6.20;;;2.00;;
17714;SDS011;8977;50.902;4.314;2024-02-23T05:46:42;5.23;;;1.73;;
17714;SDS011;8977;50.902;4.314;2024-02-23T05:49:09;7.70;;;2.30;;
17714;SDS011;8977;50.902;4.314;2024-02-23T05:51:37;6.37;;;1.93;;
17714;SDS011;8977;50.902;4.314;2024-02-23T05:54:07;4.93;;;1.90;;
17714;SDS011;8977;50.902;4.314;2024-02-23T05:56:34;5.53;;;1.90;;
17714;SDS011;8977;50.902;4.314;2024-02-23T05:59:02;8.57;;;2.00;;
17714;SDS011;8977;50.902;4.314;2024-02-23T06:01:29;6.13;;;1.93;;
17714;SDS011;8977;50.902;4.314;2024-02-23T06:03:56;3.53;;;1.70;;
17714;SDS011;8977;50.902;4.314;2024-02-23T06:06:23;6.47;;;2.10;;
17714;SDS011;8977;50.902;4.314;2024-02-23T06:08:49;6.27;;;2.10;;
17714;SDS011;8977;50.902;4.314;2024-02-23T06:11:18;6.17;;;1.93;;
17714;SDS011;8977;50.902;4.314;2024-02-23T06:13:44;5.80;;;1.60;;
17714;SDS011;8977;50.902;4.314;2024-02-23T06:16:11;6.40;;;1.77;;
17714;SDS011;8977;50.902;4.314;2024-02-23T06:18:39;6.37;;;1.83;;
17714;SDS011;8977;50.902;4.314;2024-02-23T06:21:13;4.43;;;1.80;;
17714;SDS011;8977;50.902;4.314;2024-02-23T06:23:40;5.57;;;2.03;;
17714;SDS011;8977;50.902;4.314;2024-02-23T06:26:07;6.37;;;1.90;;
17714;SDS011;8977;50.902;4.314;2024-02-23T06:28:35;2.67;;;1.50;;
17714;SDS011;8977;50.902;4.314;2024-02-23T06:31:03;10.37;;;2.10;;
17714;SDS011;8977;50.902;4.314;2024-02-23T06:33:31;6.60;;;1.80;;
17714;SDS011;8977;50.902;4.314;2024-02-23T06:35:58;5.43;;;1.50;;
17714;SDS011;8977;50.902;4.314;2024-02-23T06:38:25;5.23;;;1.63;;
17714;SDS011;8977;50.902;4.314;2024-02-23T06:40:53;6.67;;;2.07;;
17714;SDS011;8977;50.902;4.314;2024-02-23T06:43:21;6.87;;;1.93;;
17714;SDS011;8977;50.902;4.314;2024-02-23T06:45:49;5.63;;;1.53;;
17714;SDS011;8977;50.902;4.314;2024-02-23T06:48:17;6.00;;;1.97;;
17714;SDS011;8977;50.902;4.314;2024-02-23T06:50:43;5.73;;;2.27;;
17714;SDS011;8977;50.902;4.314;2024-02-23T06:53:10;6.83;;;2.10;;
17714;SDS011;8977;50.902;4.314;2024-02-23T06:55:37;7.43;;;1.83;;
17714;SDS011;8977;50.902;4.314;2024-02-23T06:58:04;6.67;;;1.80;;
17714;SDS011;8977;50.902;4.314;2024-02-23T07:00:32;7.33;;;2.00;;
17714;SDS011;8977;50.902;4.314;2024-02-23T07:03:01;5.20;;;1.70;;
17714;SDS011;8977;50.902;4.314;2024-02-23T07:05:29;9.43;;;1.97;;
17714;SDS011;8977;50.902;4.314;2024-02-23T07:07:56;2.97;;;1.47;;
17714;SDS011;8977;50.902;4.314;2024-02-23T07:10:23;3.27;;;1.57;;
17714;SDS011;8977;50.902;4.314;2024-02-23T07:12:50;7.23;;;1.70;;
17714;SDS011;8977;50.902;4.314;2024-02-23T07:15:19;5.17;;;1.73;;
17714;SDS011;8977;50.902;4.314;2024-02-23T07:17:46;6.30;;;1.60;;
17714;SDS011;8977;50.902;4.314;2024-02-23T07:20:15;5.80;;;1.67;;
17714;SDS011;8977;50.902;4.314;2024-02-23T07:22:43;7.17;;;2.13;;
17714;SDS011;8977;50.902;4.314;2024-02-23T07:25:09;5.43;;;1.60;;
17714;SDS011;8977;50.902;4.314;2024-02-23T07:27:36;8.37;;;1.97;;
17714;SDS011;8977;50.902;4.314;2024-02-23T07:30:04;8.13;;;1.70;;
17714;SDS011;8977;50.902;4.314;2024-02-23T07:32:31;5.80;;;1.60;;
17714;SDS011;8977;50.902;4.314;2024-02-23T07:34:58;5.70;;;1.77;;
17714;SDS011;8977;50.902;4.314;2024-02-23T07:37:27;7.03;;;1.77;;
17714;SDS011;8977;50.902;4.314;2024-02-23T07:39:53;8.87;;;2.17;;
17714;SDS011;8977;50.902;4.314;2024-02-23T07:42:20;5.63;;;2.33;;
17714;SDS011;8977;50.902;4.314;2024-02-23T07:44:47;6.17;;;1.77;;
17714;SDS011;8977;50.902;4.314;2024-02-23T07:47:14;8.80;;;2.10;;
17714;SDS011;8977;50.902;4.314;2024-02-23T07:49:42;7.30;;;2.03;;
17714;SDS011;8977;50.902;4.314;2024-02-23T07:52:09;4.57;;;1.43;;
17714;SDS011;8977;50.902;4.314;2024-02-23T07:54:37;6.33;;;1.90;;
17714;SDS011;8977;50.902;4.314;2024-02-23T07:57:04;8.43;;;1.93;;
17714;SDS011;8977;50.902;4.314;2024-02-23T07:59:32;4.13;;;1.73;;
17714;SDS011;8977;50.902;4.314;2024-02-23T08:01:59;6.60;;;2.53;;
17714;SDS011;8977;50.902;4.314;2024-02-23T08:04:26;3.33;;;1.50;;
17714;SDS011;8977;50.902;4.314;2024-02-23T08:06:52;7.60;;;1.70;;
17714;SDS011;8977;50.902;4.314;2024-02-23T08:09:19;5.33;;;1.40;;
17714;SDS011;8977;50.902;4.314;2024-02-23T08:11:48;8.37;;;1.97;;
17714;SDS011;8977;50.902;4.314;2024-02-23T08:14:16;8.93;;;2.40;;
17714;SDS011;8977;50.902;4.314;2024-02-23T08:16:43;6.23;;;1.63;;
17714;SDS011;8977;50.902;4.314;2024-02-23T08:19:10;6.37;;;1.80;;
17714;SDS011;8977;50.902;4.314;2024-02-23T08:21:37;5.67;;;1.80;;
17714;SDS011;8977;50.902;4.314;2024-02-23T08:24:04;5.10;;;1.93;;
17714;SDS011;8977;50.902;4.314;2024-02-23T08:26:32;8.43;;;2.20;;
17714;SDS011;8977;50.902;4.314;2024-02-23T08:29:01;6.30;;;1.80;;
17714;SDS011;8977;50.902;4.314;2024-02-23T08:31:28;6.43;;;1.73;;
17714;SDS011;8977;50.902;4.314;2024-02-23T08:33:55;6.27;;;1.73;;
17714;SDS011;8977;50.902;4.314;2024-02-23T08:36:22;5.57;;;1.70;;
17714;SDS011;8977;50.902;4.314;2024-02-23T08:38:49;6.93;;;1.70;;
17714;SDS011;8977;50.902;4.314;2024-02-23T08:41:16;6.27;;;1.70;;
17714;SDS011;8977;50.902;4.314;2024-02-23T08:43:43;7.87;;;2.03;;
17714;SDS011;8977;50.902;4.314;2024-02-23T08:46:11;5.73;;;2.10;;
17714;SDS011;8977;50.902;4.314;2024-02-23T08:48:38;7.67;;;2.10;;
17714;SDS011;8977;50.902;4.314;2024-02-23T08:51:04;5.03;;;2.10;;
17714;SDS011;8977;50.902;4.314;2024-02-23T08:53:31;7.90;;;1.70;;
17714;SDS011;8977;50.902;4.314;2024-02-23T08:55:58;4.60;;;1.63;;
17714;SDS011;8977;50.902;4.314;2024-02-23T08:58:25;3.33;;;1.70;;
17714;SDS011;8977;50.902;4.314;2024-02-23T09:00:52;7.97;;;2.23;;
17714;SDS011;8977;50.902;4.314;2024-02-23T09:03:20;5.07;;;2.33;;
17714;SDS011;8977;50.902;4.314;2024-02-23T09:05:47;4.93;;;1.90;;
17714;SDS011;8977;50.902;4.314;2024-02-23T09:08:14;6.20;;;2.17;;
17714;SDS011;8977;50.902;4.314;2024-02-23T09:10:41;6.67;;;2.20;;
17714;SDS011;8977;50.902;4.314;2024-02-23T09:13:08;5.67;;;2.10;;
17714;SDS011;8977;50.902;4.314;2024-02-23T09:15:35;6.63;;;1.90;;
17714;SDS011;8977;50.902;4.314;2024-02-23T09:18:02;5.27;;;2.10;;
17714;SDS011;8977;50.902;4.314;2024-02-23T09:20:30;10.00;;;2.20;;
17714;SDS011;8977;50.902;4.314;2024-02-23T09:22:57;7.80;;;2.20;;
17714;SDS011;8977;50.902;4.314;2024-02-23T09:25:24;4.73;;;1.87;;
17714;SDS011;8977;50.902;4.314;2024-02-23T09:27:51;4.50;;;2.03;;
17714;SDS011;8977;50.902;4.314;2024-02-23T09:30:18;6.60;;;2.23;;
17714;SDS011;8977;50.902;4.314;2024-02-23T09:32:45;6.30;;;2.13;;
17714;SDS011;8977;50.902;4.314;2024-02-23T09:35:12;6.03;;;2.37;;
17714;SDS011;8977;50.902;4.314;2024-02-23T09:37:40;4.37;;;2.07;;
17714;SDS011;8977;50.902;4.314;2024-02-23T09:40:08;5.50;;;2.33;;
17714;SDS011;8977;50.902;4.314;2024-02-23T09:42:35;6.57;;;2.23;;
17714;SDS011;8977;50.902;4.314;2024-02-23T09:45:03;8.20;;;2.27;;
17714;SDS011;8977;50.902;4.314;2024-02-23T09:47:32;6.27;;;2.83;;
17714;SDS011;8977;50.902;4.314;2024-02-23T09:49:59;5.80;;;2.10;;
17714;SDS011;8977;50.902;4.314;2024-02-23T09:52:29;7.05;;;2.40;;
17714;SDS011;8977;50.902;4.314;2024-02-23T09:54:59;7.70;;;2.27;;
17714;SDS011;8977;50.902;4.314;2024-02-23T09:57:26;5.83;;;1.67;;
17714;SDS011;8977;50.902;4.314;2024-02-23T09:59:53;7.60;;;1.70;;
17714;SDS011;8977;50.902;4.314;2024-02-23T10:02:21;4.67;;;1.50;;
17714;SDS011;8977;50.902;4.314;2024-02-23T10:04:48;4.43;;;1.37;;
17714;SDS011;8977;50.902;4.314;2024-02-23T10:07:17;3.73;;;1.30;;
17714;SDS011;8977;50.902;4.314;2024-02-23T10:09:44;6.07;;;1.40;;
17714;SDS011;8977;50.902;4.314;2024-02-23T10:12:12;3.37;;;1.20;;
17714;SDS011;8977;50.902;4.314;2024-02-23T10:14:40;4.50;;;1.10;;
17714;SDS011;8977;50.902;4.314;2024-02-23T10:17:08;4.73;;;1.30;;
17714;SDS011;8977;50.902;4.314;2024-02-23T10:19:34;6.17;;;1.70;;
17714;SDS011;8977;50.902;4.314;2024-02-23T10:22:01;7.17;;;1.50;;
17714;SDS011;8977;50.902;4.314;2024-02-23T10:24:28;3.57;;;1.20;;
17714;SDS011;8977;50.902;4.314;2024-02-23T10:26:55;4.13;;;1.50;;
17714;SDS011;8977;50.902;4.314;2024-02-23T10:29:23;4.10;;;1.37;;
17714;SDS011;8977;50.902;4.314;2024-02-23T10:31:51;5.30;;;1.70;;
17714;SDS011;8977;50.902;4.314;2024-02-23T10:34:20;4.67;;;1.53;;
17714;SDS011;8977;50.902;4.314;2024-02-23T10:36:47;4.33;;;1.70;;
17714;SDS011;8977;50.902;4.314;2024-02-23T10:39:16;4.37;;;1.57;;
17714;SDS011;8977;50.902;4.314;2024-02-23T10:41:46;4.77;;;1.50;;
17714;SDS011;8977;50.902;4.314;2024-02-23T10:44:18;3.97;;;1.40;;
17714;SDS011;8977;50.902;4.314;2024-02-23T10:46:46;5.90;;;1.50;;
17714;SDS011;8977;50.902;4.314;2024-02-23T10:49:16;7.00;;;1.80;;
17714;SDS011;8977;50.902;4.314;2024-02-23T10:51:46;7.87;;;1.60;;
17714;SDS011;8977;50.902;4.314;2024-02-23T10:54:15;4.03;;;1.53;;
17714;SDS011;8977;50.902;4.314;2024-02-23T10:56:45;6.13;;;2.17;;
17714;SDS011;8977;50.902;4.314;2024-02-23T10:59:13;4.83;;;1.50;;
17714;SDS011;8977;50.902;4.314;2024-02-23T11:01:41;5.63;;;1.63;;
17714;SDS011;8977;50.902;4.314;2024-02-23T11:04:09;4.23;;;1.63;;
17714;SDS011;8977;50.902;4.314;2024-02-23T11:06:37;6.43;;;1.53;;
17714;SDS011;8977;50.902;4.314;2024-02-23T11:09:07;2.60;;;1.23;;
17714;SDS011;8977;50.902;4.314;2024-02-23T11:11:34;5.37;;;1.63;;
17714;SDS011;8977;50.902;4.314;2024-02-23T11:14:03;6.07;;;2.17;;
17714;SDS011;8977;50.902;4.314;2024-02-23T11:16:33;4.77;;;1.60;;
17714;SDS011;8977;50.902;4.314;2024-02-23T11:19:05;5.20;;;1.47;;
17714;SDS011;8977;50.902;4.314;2024-02-23T11:21:36;7.13;;;1.77;;
17714;SDS011;8977;50.902;4.314;2024-02-23T11:24:03;5.47;;;1.50;;
17714;SDS011;8977;50.902;4.314;2024-02-23T11:26:31;7.37;;;1.77;;
17714;SDS011;8977;50.902;4.314;2024-02-23T11:28:58;7.73;;;1.63;;
17714;SDS011;8977;50.902;4.314;2024-02-23T11:31:35;5.77;;;1.57;;
17714;SDS011;8977;50.902;4.314;2024-02-23T11:34:07;6.30;;;2.30;;
17714;SDS011;8977;50.902;4.314;2024-02-23T11:36:37;4.50;;;1.50;;
17714;SDS011;8977;50.902;4.314;2024-02-23T11:39:05;3.53;;;1.30;;
17714;SDS011;8977;50.902;4.314;2024-02-23T11:41:32;6.80;;;1.50;;
17714;SDS011;8977;50.902;4.314;2024-02-23T11:43:59;6.10;;;1.30;;
17714;SDS011;8977;50.902;4.314;2024-02-23T11:46:25;3.63;;;1.30;;
17714;SDS011;8977;50.902;4.314;2024-02-23T11:48:52;5.83;;;1.37;;
17714;SDS011;8977;50.902;4.314;2024-02-23T11:51:20;3.30;;;1.03;;
17714;SDS011;8977;50.902;4.314;2024-02-23T11:53:49;4.43;;;1.47;;
17714;SDS011;8977;50.902;4.314;2024-02-23T11:56:16;4.97;;;1.20;;
17714;SDS011;8977;50.902;4.314;2024-02-23T11:58:47;6.70;;;1.20;;
17714;SDS011;8977;50.902;4.314;2024-02-23T12:01:14;4.47;;;1.50;;
17714;SDS011;8977;50.902;4.314;2024-02-23T12:03:41;3.80;;;1.30;;
17714;SDS011;8977;50.902;4.314;2024-02-23T12:06:09;4.63;;;1.20;;
17714;SDS011;8977;50.902;4.314;2024-02-23T12:08:37;2.97;;;1.00;;
17714;SDS011;8977;50.902;4.314;2024-02-23T12:11:06;7.13;;;1.17;;
17714;SDS011;8977;50.902;4.314;2024-02-23T12:13:34;3.50;;;0.80;;
17714;SDS011;8977;50.902;4.314;2024-02-23T12:16:07;4.30;;;1.20;;
17714;SDS011;8977;50.902;4.314;2024-02-23T12:18:35;3.77;;;1.37;;
17714;SDS011;8977;50.902;4.314;2024-02-23T12:21:03;4.53;;;1.20;;
17714;SDS011;8977;50.902;4.314;2024-02-23T12:23:39;3.80;;;1.27;;
17714;SDS011;8977;50.902;4.314;2024-02-23T12:26:08;3.27;;;1.00;;
17714;SDS011;8977;50.902;4.314;2024-02-23T12:28:35;3.63;;;1.20;;
17714;SDS011;8977;50.902;4.314;2024-02-23T12:31:02;2.67;;;1.07;;
17714;SDS011;8977;50.902;4.314;2024-02-23T12:33:31;3.33;;;0.87;;
17714;SDS011;8977;50.902;4.314;2024-02-23T12:35:59;2.70;;;1.00;;
17714;SDS011;8977;50.902;4.314;2024-02-23T12:38:27;3.37;;;1.07;;
17714;SDS011;8977;50.902;4.314;2024-02-23T12:40:54;2.93;;;1.00;;
17714;SDS011;8977;50.902;4.314;2024-02-23T12:43:23;4.17;;;1.20;;
17714;SDS011;8977;50.902;4.314;2024-02-23T12:45:50;5.17;;;1.47;;
17714;SDS011;8977;50.902;4.314;2024-02-23T12:48:17;4.27;;;1.40;;
17714;SDS011;8977;50.902;4.314;2024-02-23T12:50:45;4.70;;;1.17;;
17714;SDS011;8977;50.902;4.314;2024-02-23T12:53:29;5.00;;;1.13;;
17714;SDS011;8977;50.902;4.314;2024-02-23T12:55:58;2.77;;;1.13;;
17714;SDS011;8977;50.902;4.314;2024-02-23T12:58:26;3.77;;;1.27;;
17714;SDS011;8977;50.902;4.314;2024-02-23T13:00:53;3.97;;;1.37;;
17714;SDS011;8977;50.902;4.314;2024-02-23T13:03:21;3.90;;;1.45;;
17714;SDS011;8977;50.902;4.314;2024-02-23T13:05:49;4.53;;;1.17;;
17714;SDS011;8977;50.902;4.314;2024-02-23T13:08:15;4.40;;;1.27;;
17714;SDS011;8977;50.902;4.314;2024-02-23T13:10:43;5.40;;;1.30;;
17714;SDS011;8977;50.902;4.314;2024-02-23T13:13:10;5.50;;;1.60;;
17714;SDS011;8977;50.902;4.314;2024-02-23T13:15:39;4.43;;;1.30;;
17714;SDS011;8977;50.902;4.314;2024-02-23T13:18:06;3.80;;;1.57;;
17714;SDS011;8977;50.902;4.314;2024-02-23T13:20:33;4.60;;;1.80;;
17714;SDS011;8977;50.902;4.314;2024-02-23T13:23:00;4.63;;;1.70;;
17714;SDS011;8977;50.902;4.314;2024-02-23T13:25:27;5.40;;;1.70;;
17714;SDS011;8977;50.902;4.314;2024-02-23T13:27:54;8.37;;;1.73;;
17714;SDS011;8977;50.902;4.314;2024-02-23T13:30:21;5.47;;;2.07;;
17714;SDS011;8977;50.902;4.314;2024-02-23T13:32:49;4.27;;;1.90;;
17714;SDS011;8977;50.902;4.314;2024-02-23T13:35:16;3.73;;;1.80;;
17714;SDS011;8977;50.902;4.314;2024-02-23T13:37:43;5.53;;;1.80;;
17714;SDS011;8977;50.902;4.314;2024-02-23T13:40:10;4.43;;;1.60;;
17714;SDS011;8977;50.902;4.314;2024-02-23T13:42:37;5.53;;;1.60;;
17714;SDS011;8977;50.902;4.314;2024-02-23T13:45:05;2.93;;;1.30;;
17714;SDS011;8977;50.902;4.314;2024-02-23T13:47:33;5.60;;;1.63;;
17714;SDS011;8977;50.902;4.314;2024-02-23T13:50:02;5.97;;;1.70;;
17714;SDS011;8977;50.902;4.314;2024-02-23T13:52:29;4.83;;;1.70;;
17714;SDS011;8977;50.902;4.314;2024-02-23T13:54:56;7.97;;;1.93;;
17714;SDS011;8977;50.902;4.314;2024-02-23T13:57:23;4.47;;;1.43;;
17714;SDS011;8977;50.902;4.314;2024-02-23T13:59:50;6.27;;;1.83;;
17714;SDS011;8977;50.902;4.314;2024-02-23T14:02:23;3.57;;;2.10;;
17714;SDS011;8977;50.902;4.314;2024-02-23T14:04:51;8.70;;;1.90;;
17714;SDS011;8977;50.902;4.314;2024-02-23T14:07:20;4.97;;;1.70;;
17714;SDS011;8977;50.902;4.314;2024-02-23T14:09:47;3.17;;;1.53;;
17714;SDS011;8977;50.902;4.314;2024-02-23T14:12:14;5.93;;;1.83;;
17714;SDS011;8977;50.902;4.314;2024-02-23T14:14:42;3.93;;;1.83;;
17714;SDS011;8977;50.902;4.314;2024-02-23T14:17:09;4.83;;;1.80;;
17714;SDS011;8977;50.902;4.314;2024-02-23T14:19:36;7.27;;;2.23;;
17714;SDS011;8977;50.902;4.314;2024-02-23T14:22:04;6.33;;;2.03;;
17714;SDS011;8977;50.902;4.314;2024-02-23T14:24:33;4.67;;;1.97;;
17714;SDS011;8977;50.902;4.314;2024-02-23T14:26:59;5.50;;;2.50;;
17714;SDS011;8977;50.902;4.314;2024-02-23T14:29:26;4.50;;;2.20;;
17714;SDS011;8977;50.902;4.314;2024-02-23T14:31:52;3.20;;;1.80;;
17714;SDS011;8977;50.902;4.314;2024-02-23T14:34:19;5.70;;;2.10;;
17714;SDS011;8977;50.902;4.314;2024-02-23T14:36:48;6.93;;;2.10;;
17714;SDS011;8977;50.902;4.314;2024-02-23T14:39:15;5.43;;;1.80;;
17714;SDS011;8977;50.902;4.314;2024-02-23T14:41:43;4.17;;;1.60;;
17714;SDS011;8977;50.902;4.314;2024-02-23T14:44:10;5.57;;;1.47;;
17714;SDS011;8977;50.902;4.314;2024-02-23T14:46:37;3.63;;;1.77;;
17714;SDS011;8977;50.902;4.314;2024-02-23T14:49:04;4.83;;;2.63;;
17714;SDS011;8977;50.902;4.314;2024-02-23T14:51:32;3.60;;;2.40;;
17714;SDS011;8977;50.902;4.314;2024-02-23T14:54:00;4.40;;;2.47;;
17714;SDS011;8977;50.902;4.314;2024-02-23T14:56:27;5.40;;;2.17;;
17714;SDS011;8977;50.902;4.314;2024-02-23T14:58:55;5.13;;;2.27;;
17714;SDS011;8977;50.902;4.314;2024-02-23T15:01:22;5.30;;;2.10;;